Aviation Digital Data Service (ADDS)

Output produced by METARs form (0227 UTC 13 February 2016)
found at http://aviationweather.gov/adds/metars/
 
KBPT 122320Z 1300/1324 24006KT P6SM SCT040 
     FM130300 VRB05KT 4SM BR BKN025 
     FM130800 02008KT P6SM SCT030 
     FM131200 05012KT P6SM SCT035 
     FM131900 09009KT P6SM SKC